createdAt,value
2023-02-22T06:49:55.526Z,508.00
2023-02-22T06:50:55.276Z,500.00
2023-02-22T06:51:55.492Z,502.00
2023-02-22T06:52:56.813Z,502.00
2023-02-22T06:53:55.148Z,510.00
2023-02-22T06:54:55.440Z,512.00
2023-02-22T06:55:55.414Z,507.00
2023-02-22T06:56:55.166Z,518.00
2023-02-22T06:57:55.164Z,515.00
2023-02-22T06:58:55.152Z,513.00
2023-02-22T06:59:55.151Z,515.00
2023-02-22T07:00:55.505Z,518.00
2023-02-22T07:01:55.162Z,516.00
2023-02-22T07:02:55.110Z,511.00
2023-02-22T07:03:55.170Z,510.00
2023-02-22T07:04:55.251Z,507.00
2023-02-22T07:05:55.280Z,508.00
2023-02-22T07:06:55.192Z,511.00
2023-02-22T07:07:55.222Z,510.00
2023-02-22T07:08:55.243Z,506.00
2023-02-22T07:09:55.299Z,512.00
2023-02-22T07:10:55.410Z,515.00
2023-02-22T07:11:55.392Z,511.00
2023-02-22T07:12:55.370Z,519.00
2023-02-22T07:13:55.310Z,520.00
2023-02-22T07:14:55.346Z,519.00
2023-02-22T07:15:56.056Z,520.00
2023-02-22T07:16:55.486Z,520.00
2023-02-22T07:17:55.476Z,517.00
2023-02-22T07:18:55.528Z,520.00
2023-02-22T07:19:55.590Z,523.00
2023-02-22T07:20:55.607Z,519.00
2023-02-22T07:21:55.655Z,521.00
2023-02-22T07:22:55.717Z,520.00
2023-02-22T07:23:55.743Z,521.00
2023-02-22T07:24:55.749Z,527.00
2023-02-22T07:25:55.978Z,524.00
2023-02-22T07:26:55.928Z,530.00
2023-02-22T07:27:55.743Z,516.00
2023-02-22T07:28:55.872Z,519.00
2023-02-22T07:30:56.592Z,517.00
2023-02-22T07:31:56.039Z,515.00
2023-02-22T07:32:56.114Z,512.00
2023-02-22T07:33:56.044Z,512.00
2023-02-22T07:34:56.196Z,513.00
2023-02-22T07:35:56.207Z,508.00
2023-02-22T07:36:56.518Z,503.00
2023-02-22T07:38:56.276Z,509.00
2023-02-22T07:39:56.329Z,600.00
2023-02-22T07:40:56.642Z,577.00
2023-02-22T07:41:56.271Z,531.00
2023-02-22T07:42:57.178Z,538.00
2023-02-22T07:43:56.265Z,534.00
2023-02-22T07:44:56.299Z,536.00
2023-02-22T07:45:56.296Z,549.00
2023-02-22T07:48:17.394Z,681.00
2023-02-22T07:49:15.204Z,644.00
2023-02-22T07:50:15.571Z,624.00
2023-02-22T07:51:15.465Z,621.00
2023-02-22T07:52:15.340Z,621.00
2023-02-22T07:53:15.422Z,622.00
2023-02-22T08:03:53.520Z,631.00
2023-02-22T08:32:50.302Z,1114.00
2023-02-22T08:47:46.710Z,740.00
2023-02-22T08:48:46.904Z,678.00
2023-02-22T08:49:46.826Z,664.00
2023-02-22T08:50:47.672Z,674.00
2023-02-22T08:51:47.093Z,679.00
2023-02-22T08:52:46.789Z,673.00
2023-02-22T08:53:46.829Z,656.00
2023-02-22T08:54:46.933Z,648.00
2023-02-22T08:55:46.964Z,642.00
2023-02-22T08:56:47.047Z,639.00
2023-02-22T08:57:46.959Z,639.00
2023-02-22T08:58:46.956Z,639.00
2023-02-22T08:59:47.286Z,635.00
2023-02-22T09:02:05.993Z,633.00
2023-02-22T09:03:05.915Z,631.00
2023-02-22T09:04:05.934Z,627.00
2023-02-22T09:05:05.952Z,624.00
2023-02-22T09:06:06.122Z,623.00
2023-02-22T09:07:05.905Z,630.00
2023-02-22T09:08:05.897Z,691.00
2023-02-22T09:09:05.905Z,708.00
2023-02-22T09:10:05.852Z,682.00
2023-02-22T09:11:05.865Z,668.00
2023-02-22T09:12:05.863Z,664.00
2023-02-22T09:13:05.879Z,657.00
2023-02-22T09:45:45.188Z,613.00
2023-02-22T09:46:44.608Z,584.00
2023-02-22T09:54:22.903Z,661.00
2023-02-22T09:55:22.818Z,706.00
2023-02-22T09:56:22.746Z,703.00
2023-02-22T10:01:43.865Z,726.00
2023-02-22T10:06:10.680Z,726.00
2023-02-22T10:07:10.866Z,716.00
2023-02-22T10:11:19.524Z,699.00
2023-02-22T10:13:37.422Z,701.00
2023-02-22T10:14:37.807Z,692.00
2023-02-22T10:15:37.986Z,691.00
2023-02-22T10:16:37.373Z,667.00
2023-02-22T10:17:37.289Z,624.00
2023-02-22T10:18:37.240Z,620.00
2023-02-22T10:19:37.263Z,632.00
2023-02-22T10:20:37.869Z,637.00
2023-02-22T10:22:56.439Z,658.00
2023-02-22T10:23:57.841Z,659.00
2023-02-22T10:26:59.351Z,687.00
2023-02-22T10:30:38.658Z,682.00
2023-02-22T10:44:07.244Z,912.00
2023-02-22T10:45:06.876Z,908.00
2023-02-22T10:46:05.479Z,870.00
2023-02-22T10:48:05.381Z,739.00
2023-02-22T10:51:43.880Z,728.00
2023-02-22T10:58:40.357Z,699.00
2023-02-22T11:04:08.049Z,744.00
2023-02-22T11:06:52.675Z,771.00
2023-02-22T11:09:08.666Z,691.00
2023-02-22T11:10:08.236Z,692.00
2023-02-22T11:11:08.267Z,738.00
2023-02-22T11:12:08.408Z,747.00
2023-02-22T11:13:08.194Z,763.00
2023-02-22T11:14:08.200Z,785.00
2023-02-22T11:15:08.191Z,794.00
2023-02-22T11:16:14.124Z,793.00
2023-02-22T11:24:24.305Z,842.00
2023-02-22T11:29:51.239Z,877.00
2023-02-22T13:24:22.142Z,699.00
2023-02-22T13:25:22.154Z,693.00
2023-02-22T13:26:21.894Z,688.00
2023-02-22T13:43:40.686Z,660.00
2023-02-22T13:51:40.574Z,687.00
2023-02-22T13:52:40.504Z,696.00
2023-02-22T13:53:40.598Z,701.00
2023-02-22T13:54:40.578Z,712.00
2023-02-22T13:55:40.661Z,721.00
2023-02-22T13:56:40.657Z,726.00
2023-02-22T13:57:40.704Z,571.00
2023-02-22T13:58:40.779Z,678.00
2023-02-22T13:59:40.764Z,690.00
2023-02-22T14:00:40.796Z,695.00
2023-02-22T14:01:40.940Z,694.00
2023-02-22T14:02:40.871Z,703.00
2023-02-22T14:03:41.435Z,711.00
2023-02-22T14:04:41.072Z,712.00
2023-02-22T14:05:42.101Z,707.00
2023-02-22T14:06:41.071Z,700.00
2023-02-22T14:07:41.101Z,691.00
2023-02-22T14:08:41.964Z,681.00
2023-02-22T14:09:41.207Z,679.00
2023-02-22T14:44:40.598Z,695.00
2023-02-22T14:45:40.582Z,701.00
2023-02-22T14:46:40.626Z,700.00
2023-02-22T14:47:40.642Z,706.00
2023-02-22T14:48:40.831Z,705.00
2023-02-22T14:49:40.698Z,705.00
2023-02-22T14:50:40.952Z,707.00
2023-02-22T14:51:40.774Z,705.00
2023-02-22T14:52:40.985Z,704.00
2023-02-22T14:53:40.860Z,699.00
2023-02-22T14:54:40.971Z,694.00
2023-02-22T14:55:41.056Z,688.00
2023-02-22T14:56:41.061Z,684.00
2023-02-22T14:57:41.098Z,689.00
2023-02-22T14:58:41.168Z,745.00
2023-02-22T14:59:41.137Z,782.00
2023-02-22T15:00:41.184Z,833.00
2023-02-22T15:02:01.750Z,852.00
2023-02-22T15:02:42.257Z,892.00
2023-02-22T15:03:41.382Z,914.00
2023-02-22T15:04:41.260Z,928.00
2023-02-22T15:05:41.184Z,932.00
2023-02-22T15:06:41.173Z,928.00
2023-02-22T15:07:41.173Z,922.00
2023-02-22T15:08:41.193Z,925.00
2023-02-22T15:09:41.170Z,925.00
2023-02-22T15:10:41.177Z,925.00
2023-02-22T15:11:41.216Z,878.00
2023-02-22T15:12:41.180Z,884.00
2023-02-22T15:13:41.133Z,831.00
2023-02-22T15:14:41.128Z,869.00
2023-02-22T15:15:41.090Z,681.00
2023-02-22T15:16:41.154Z,759.00
2023-02-22T15:17:41.102Z,769.00
2023-02-22T15:18:41.154Z,833.00
2023-02-22T15:19:41.166Z,605.00
2023-02-22T15:20:41.181Z,567.00
2023-02-22T15:21:41.290Z,572.00
2023-02-22T15:22:41.354Z,637.00
2023-02-22T15:23:41.421Z,746.00
2023-02-22T15:24:42.325Z,758.00
2023-02-22T15:25:41.596Z,766.00
2023-02-22T15:26:51.813Z,778.00
2023-02-22T15:27:42.638Z,765.00
2023-02-22T15:28:41.611Z,758.00
2023-02-22T15:31:00.966Z,770.00
2023-02-22T15:35:00.568Z,741.00
2023-02-22T15:36:00.361Z,739.00
2023-02-22T15:37:00.400Z,739.00
2023-02-22T15:38:00.406Z,729.00
2023-02-22T15:39:00.467Z,720.00
2023-02-22T15:40:00.347Z,707.00
2023-02-22T15:41:00.507Z,701.00
2023-02-22T15:43:00.369Z,696.00
2023-02-22T15:44:03.444Z,692.00
2023-02-22T15:45:01.365Z,685.00
2023-02-22T15:46:00.341Z,685.00
2023-02-22T15:47:00.283Z,683.00
2023-02-22T15:48:00.298Z,685.00
2023-02-22T15:49:00.314Z,687.00
2023-02-22T15:50:00.422Z,691.00
2023-02-22T15:51:00.373Z,691.00
2023-02-22T15:52:00.291Z,691.00
2023-02-22T15:53:00.328Z,691.00
2023-02-22T15:54:00.334Z,690.00
2023-02-22T15:55:00.273Z,688.00
2023-02-22T15:56:00.327Z,690.00
2023-02-22T15:57:00.591Z,688.00
2023-02-22T15:58:00.368Z,687.00
2023-02-22T15:59:00.345Z,687.00
2023-02-22T16:00:00.395Z,688.00
2023-02-22T16:01:00.493Z,695.00
2023-02-22T16:02:00.565Z,713.00
2023-02-22T16:03:00.517Z,714.00
2023-02-22T16:04:00.537Z,719.00
2023-02-22T16:05:00.715Z,719.00
2023-02-22T16:06:00.621Z,736.00
2023-02-22T16:07:00.652Z,737.00
2023-02-22T16:08:00.696Z,712.00
2023-02-22T16:09:00.848Z,697.00
2023-02-22T16:10:00.798Z,692.00
2023-02-22T16:11:00.856Z,689.00
2023-02-22T16:12:00.864Z,685.00
2023-02-22T16:13:00.912Z,680.00
2023-02-22T16:14:00.992Z,680.00
2023-02-22T16:15:01.025Z,678.00
2023-02-22T16:16:01.125Z,677.00
2023-02-22T16:17:01.121Z,676.00
2023-02-22T16:18:02.665Z,676.00
2023-02-22T16:19:01.210Z,678.00
2023-02-22T16:20:01.242Z,677.00
2023-02-22T16:21:01.274Z,675.00
2023-02-22T16:22:01.333Z,673.00
2023-02-22T16:23:01.368Z,672.00
2023-02-22T16:24:14.868Z,675.00
2023-02-22T16:25:02.480Z,676.00
2023-02-22T16:26:01.383Z,676.00
2023-02-22T21:30:34.062Z,698.00
2023-02-22T21:31:33.560Z,694.00
2023-02-22T21:32:33.503Z,691.00
2023-02-22T21:33:33.534Z,688.00
2023-02-22T21:34:33.456Z,688.00
2023-02-22T21:35:34.519Z,686.00
2023-02-22T21:36:33.608Z,685.00
2023-02-22T21:37:33.527Z,687.00
2023-02-22T21:38:33.517Z,690.00
2023-02-22T21:39:33.592Z,690.00
2023-02-22T21:40:33.690Z,691.00
2023-02-22T21:41:33.721Z,689.00
2023-02-22T21:42:33.796Z,688.00
2023-02-22T21:43:33.816Z,687.00
2023-02-22T21:44:33.897Z,683.00
2023-02-22T21:45:34.017Z,681.00
2023-02-22T21:46:34.002Z,681.00
2023-02-22T21:47:34.053Z,680.00
2023-02-22T21:48:34.101Z,679.00
2023-02-22T22:56:22.050Z,646.00
2023-02-22T23:52:06.984Z,625.00
2023-02-22T23:53:07.037Z,626.00
2023-02-22T23:54:07.076Z,624.00
2023-02-22T23:55:07.141Z,626.00
2023-02-22T23:56:07.152Z,624.00
2023-02-22T23:57:07.193Z,624.00
2023-02-22T23:58:07.212Z,622.00
2023-02-22T23:59:07.296Z,621.00
